Time;durP1;ratioP1;P1;durP2;ratioP2;P2;SDS_P1;SDS_P2;PMS_P1;PMS_P2;Temp;Humidity;BMP_temperature;BMP_pressure;BME280_temperature;BME280_humidity;BME280_pressure;Samples;Min_cycle;Max_cycle;Signal;HPM_P1;HPM_P2
2022/06/26 00:07:13;;;;;;;7.80;6.60;;;;;;;20.24;51.67;98427.48;432868;1271;108857;-45
2022/06/26 00:17:17;;;;;;;10.90;6.60;;;;;;;20.22;52.03;98442.23;432721;1269;96889;-46
2022/06/26 00:27:21;;;;;;;10.10;7.70;;;;;;;20.12;52.18;98446.36;432546;1270;108804;-43
2022/06/26 00:37:24;;;;;;;9.10;7.20;;;;;;;20.20;52.35;98450.60;432432;1270;98585;-44
2022/06/26 00:57:34;;;;;;;10.00;7.20;;;;;;;20.11;52.63;98450.98;432664;1270;96677;-44
2022/06/26 01:07:39;;;;;;;10.50;7.20;;;;;;;19.99;52.69;98455.48;433460;1258;97941;-44
2022/06/26 01:17:43;;;;;;;8.60;7.50;;;;;;;19.73;52.99;98455.98;432807;1271;111228;-43
2022/06/26 01:27:47;;;;;;;11.70;7.70;;;;;;;19.77;53.15;98456.88;432878;1269;97952;-44
2022/06/26 01:37:51;;;;;;;9.80;7.90;;;;;;;19.78;53.27;98454.23;432675;1269;97931;-42
2022/06/26 01:47:54;;;;;;;11.20;8.30;;;;;;;19.54;52.94;98457.34;432788;1270;111352;-41
2022/06/26 01:58:01;;;;;;;13.50;7.60;;;;;;;18.98;53.33;98462.63;432410;1270;389667;-44
2022/06/26 02:08:04;;;;;;;12.80;8.40;;;;;;;18.54;54.03;98465.66;432886;1269;97910;-42
2022/06/26 02:18:08;;;;;;;11.90;7.70;;;;;;;18.29;54.59;98470.20;432928;1270;97906;-46
2022/06/26 02:28:13;;;;;;;13.60;7.70;;;;;;;18.21;54.92;98470.17;432952;1269;108746;-44
2022/06/26 02:38:17;;;;;;;11.90;7.00;;;;;;;18.35;55.14;98475.70;432879;1270;97943;-44
2022/06/26 02:48:21;;;;;;;12.20;7.50;;;;;;;18.27;55.23;98483.62;432908;1270;108938;-41
2022/06/26 02:58:25;;;;;;;11.80;8.30;;;;;;;18.20;55.41;98488.98;433117;1270;97885;-43
2022/06/26 03:08:29;;;;;;;11.90;8.40;;;;;;;18.03;55.73;98498.17;433346;1270;110219;-46
2022/06/26 03:18:32;;;;;;;20.60;8.60;;;;;;;18.58;55.82;98508.80;433067;1269;97939;-43
2022/06/26 03:28:36;;;;;;;19.20;9.90;;;;;;;20.84;54.57;98511.45;432873;1270;97943;-44
2022/06/26 03:38:40;;;;;;;14.70;10.40;;;;;;;22.78;52.86;98515.99;433083;1269;111933;-43
2022/06/26 03:48:44;;;;;;;18.10;9.50;;;;;;;24.66;51.35;98523.41;432983;1269;97999;-41
2022/06/26 03:58:48;;;;;;;13.70;9.60;;;;;;;26.31;49.85;98524.37;432998;1270;98626;-44
2022/06/26 04:08:51;;;;;;;13.40;8.80;;;;;;;27.36;48.13;98524.69;432984;1269;111362;-42
2022/06/26 04:18:55;;;;;;;11.30;7.80;;;;;;;28.19;47.01;98527.58;432966;1270;99926;-42
2022/06/26 04:28:58;;;;;;;14.60;8.30;;;;;;;28.98;45.63;98538.01;432941;1269;98141;-43
2022/06/26 04:39:02;;;;;;;10.60;7.00;;;;;;;29.54;44.67;98544.01;433389;1270;111149;-41
2022/06/26 04:49:06;;;;;;;14.30;6.40;;;;;;;30.09;43.28;98537.36;432502;1271;98008;-44
2022/06/26 04:59:09;;;;;;;12.10;7.70;;;;;;;30.32;41.98;98552.04;433073;1270;97926;-43
2022/06/26 05:09:13;;;;;;;12.90;8.30;;;;;;;30.17;40.88;98554.19;433179;1270;111067;-44
2022/06/26 05:19:17;;;;;;;13.10;7.90;;;;;;;29.83;39.89;98559.27;433075;1269;109092;-43
2022/06/26 05:29:20;;;;;;;14.40;9.00;;;;;;;29.49;39.86;98573.96;433112;1269;97933;-42
2022/06/26 05:39:24;;;;;;;15.30;8.10;;;;;;;29.18;39.66;98581.08;433136;1270;97913;-44
2022/06/26 05:59:31;;;;;;;9.30;7.20;;;;;;;29.80;39.62;98593.30;433424;1270;98596;-43
2022/06/26 06:09:35;;;;;;;13.70;7.70;;;;;;;29.76;39.12;98596.89;433474;1270;97959;-44
2022/06/26 06:19:39;;;;;;;12.40;7.60;;;;;;;29.14;38.70;98600.76;433573;1269;109020;-46
2022/06/26 06:29:42;;;;;;;14.20;7.00;;;;;;;29.22;39.58;98610.13;433388;1269;98596;-43
2022/06/26 06:39:46;;;;;;;17.60;7.70;;;;;;;29.74;39.44;98621.91;433485;1269;98606;-44
2022/06/26 06:49:50;;;;;;;17.30;7.50;;;;;;;29.95;39.03;98627.05;433217;1269;108448;-44
2022/06/26 06:59:53;;;;;;;12.80;6.90;;;;;;;29.79;38.69;98628.88;433368;1270;98000;-42
2022/06/26 07:09:57;;;;;;;6.70;5.50;;;;;;;29.64;39.07;98633.05;433453;1270;98057;-44
2022/06/26 07:20:01;;;;;;;11.40;5.70;;;;;;;29.83;38.68;98630.44;433333;1269;108784;-43
2022/06/26 07:30:07;;;;;;;9.50;5.80;;;;;;;30.01;38.02;98630.75;433387;1269;97941;-42
2022/06/26 07:40:12;;;;;;;9.90;5.60;;;;;;;29.67;37.62;98631.48;433449;1270;111052;-43
2022/06/26 07:50:15;;;;;;;7.30;4.70;;;;;;;29.52;37.27;98639.33;433650;1270;97929;-41
2022/06/26 08:00:19;;;;;;;10.70;5.40;;;;;;;29.46;36.30;98643.15;433538;1270;97992;-48
2022/06/26 08:10:22;;;;;;;6.50;4.30;;;;;;;29.29;35.42;98644.04;433583;1269;111378;-41
2022/06/26 08:20:26;;;;;;;6.90;3.50;;;;;;;29.43;35.26;98641.45;433641;1269;98627;-42
2022/06/26 08:30:29;;;;;;;4.00;2.80;;;;;;;30.01;34.12;98647.89;433479;1269;98060;-47
2022/06/26 08:40:33;;;;;;;6.00;3.80;;;;;;;29.73;32.57;98651.25;433394;1269;110786;-43
2022/06/26 08:50:37;;;;;;;9.70;4.30;;;;;;;29.77;32.52;98653.58;433560;1269;97942;-41
2022/06/26 09:00:46;;;;;;;6.50;4.20;;;;;;;29.88;32.04;98651.57;433597;1270;97932;-42
2022/06/26 09:10:51;;;;;;;3.20;3.00;;;;;;;30.00;31.98;98651.35;433483;1270;96609;-43
2022/06/26 09:20:56;;;;;;;6.20;3.00;;;;;;;30.16;31.60;98653.91;433821;1269;97936;-46
2022/06/26 09:31:02;;;;;;;3.40;2.90;;;;;;;30.08;31.37;98656.69;433500;1269;108893;-46
2022/06/26 09:41:08;;;;;;;4.60;2.70;;;;;;;30.21;30.86;98660.16;433501;1269;97926;-42
2022/06/26 10:21:46;;;;;;;9.80;3.40;;;;;;;30.51;29.89;98665.52;433421;1270;98164;-42
2022/06/26 10:31:50;;;;;;;3.40;2.90;;;;;;;30.67;30.04;98653.27;433430;1270;108744;-45
2022/06/26 10:52:29;;;;;;;3.50;3.30;;;;;;;30.48;29.82;98655.47;433512;1269;110971;-42
2022/06/26 11:12:42;;;;;;;5.00;2.60;;;;;;;29.98;30.24;98648.60;433493;1269;97919;-43
2022/06/26 11:22:46;;;;;;;5.70;3.80;;;;;;;30.08;30.37;98641.76;433500;1270;111261;-42
2022/06/26 11:52:59;;;;;;;2.60;2.40;;;;;;;30.03;29.87;98644.41;433484;1269;110997;-44
2022/06/26 12:03:04;;;;;;;6.30;2.70;;;;;;;30.03;29.36;98647.31;433664;1270;97996;-42
2022/06/26 12:13:08;;;;;;;3.00;2.70;;;;;;;30.21;29.72;98648.25;433516;1269;98073;-41
2022/06/26 12:23:12;;;;;;;4.00;3.10;;;;;;;30.39;29.90;98650.61;433419;1270;111369;-43
2022/06/26 12:33:15;;;;;;;3.40;3.10;;;;;;;30.46;29.61;98648.02;433492;1269;97910;-43
2022/06/26 12:43:19;;;;;;;4.70;2.70;;;;;;;30.45;29.84;98651.35;433376;1269;97903;-44
2022/06/26 12:53:23;;;;;;;6.70;3.40;;;;;;;30.57;30.07;98639.66;433368;1270;111212;-42
2022/06/26 13:03:27;;;;;;;6.60;3.40;;;;;;;30.76;29.95;98637.05;433350;1269;107913;-43
2022/06/26 13:13:31;;;;;;;7.80;3.20;;;;;;;30.60;30.06;98638.39;433395;1270;97930;-42
2022/06/26 13:23:55;;;;;;;6.30;2.80;;;;;;;30.43;30.33;98632.77;433138;1269;111082;-43
2022/06/26 13:34:00;;;;;;;5.40;3.20;;;;;;;30.46;30.65;98627.98;433436;1269;97605;-42
2022/06/26 13:44:03;;;;;;;4.50;2.80;;;;;;;30.56;30.56;98630.77;433295;1270;97996;-44
2022/06/26 13:54:08;;;;;;;7.20;2.50;;;;;;;30.60;30.45;98629.27;432849;1269;736798;-42
2022/06/26 14:04:11;;;;;;;5.90;2.70;;;;;;;30.42;30.63;98627.92;433241;1269;108922;-42
2022/06/26 14:14:15;;;;;;;4.30;2.70;;;;;;;30.35;30.91;98621.80;433052;1270;97897;-46
2022/06/26 14:44:45;;;;;;;2.70;2.50;;;;;;;30.29;30.53;98618.32;433332;1270;111310;-43
2022/06/26 14:54:49;;;;;;;3.70;2.80;;;;;;;30.27;30.85;98624.35;433403;1269;108907;-43
2022/06/26 15:04:52;;;;;;;2.90;2.60;;;;;;;30.15;31.08;98619.38;433367;1270;97958;-42
2022/06/26 15:14:56;;;;;;;6.50;2.60;;;;;;;30.19;31.14;98621.55;433313;1269;110313;-43
2022/06/26 15:24:59;;;;;;;4.30;2.90;;;;;;;30.08;31.11;98623.76;433169;1269;107825;-44
2022/06/26 15:35:02;;;;;;;6.40;2.90;;;;;;;30.03;31.10;98621.59;433272;1269;97917;-43
2022/06/26 15:45:07;;;;;;;2.80;2.60;;;;;;;29.93;31.18;98620.38;433327;1269;97961;-42
2022/06/26 16:05:15;;;;;;;4.10;2.70;;;;;;;29.86;31.25;98616.02;433254;1269;97939;-46
2022/06/26 16:15:19;;;;;;;3.70;2.70;;;;;;;29.79;31.20;98608.31;433124;1270;97926;-42
2022/06/26 16:35:44;;;;;;;6.30;3.10;;;;;;;29.59;30.97;98603.05;433057;1270;98006;-45
2022/06/26 16:45:48;;;;;;;3.30;2.70;;;;;;;29.46;31.42;98601.59;433209;1269;97928;-44
2022/06/26 16:55:52;;;;;;;3.60;2.70;;;;;;;29.43;31.86;98603.30;433251;1270;109348;-44
2022/06/26 17:05:56;;;;;;;3.80;3.30;;;;;;;29.32;32.04;98596.57;433250;1270;98009;-42
2022/06/26 17:16:00;;;;;;;6.00;2.90;;;;;;;29.15;32.07;98600.02;433405;1269;100679;-42
2022/06/26 17:26:04;;;;;;;4.10;3.00;;;;;;;28.97;32.25;98596.48;433102;1270;108870;-43
2022/06/26 17:36:09;;;;;;;6.90;3.30;;;;;;;28.84;32.86;98596.44;433423;1270;97906;-42
2022/06/26 17:46:14;;;;;;;3.80;3.10;;;;;;;28.70;33.02;98601.91;433038;1270;109076;-43
2022/06/26 17:56:18;;;;;;;6.90;3.00;;;;;;;28.50;33.19;98603.41;433279;1270;97971;-42
2022/06/26 18:06:21;;;;;;;3.30;3.00;;;;;;;28.28;33.57;98606.85;433098;1270;111448;-43
2022/06/26 18:16:25;;;;;;;4.20;3.30;;;;;;;28.05;34.12;98611.16;433032;1270;108951;-45
2022/06/26 18:26:29;;;;;;;8.00;2.70;;;;;;;27.74;34.55;98620.57;433302;1270;97104;-43
2022/06/26 18:36:33;;;;;;;9.20;3.60;;;;;;;27.33;35.40;98630.46;433146;1269;108834;-42
2022/06/26 18:46:37;;;;;;;5.40;4.20;;;;;;;26.77;36.81;98636.00;433307;1269;97514;-43
2022/06/26 18:56:41;;;;;;;7.00;3.70;;;;;;;26.18;37.77;98647.27;433301;1270;111157;-43
2022/06/26 19:06:45;;;;;;;4.90;4.50;;;;;;;25.58;38.47;98655.76;433124;1269;98009;-43
2022/06/26 19:16:50;;;;;;;5.50;4.50;;;;;;;25.20;39.52;98671.31;433217;1270;97950;-43
2022/06/26 19:26:54;;;;;;;7.20;4.50;;;;;;;24.82;40.39;98677.75;433443;1270;110149;-42
2022/06/26 19:36:58;;;;;;;8.30;5.00;;;;;;;24.24;41.62;98687.59;433257;1270;108645;-42
2022/06/26 19:47:02;;;;;;;8.30;5.60;;;;;;;23.82;42.77;98696.91;433213;1270;97905;-42
2022/06/26 19:57:06;;;;;;;7.90;5.60;;;;;;;23.32;44.11;98701.10;433362;1270;109035;-44
2022/06/26 20:07:09;;;;;;;9.10;6.10;;;;;;;22.95;45.13;98701.37;433070;1270;97913;-42
2022/06/26 20:17:12;;;;;;;7.30;5.30;;;;;;;22.72;45.81;98703.41;433142;1270;110816;-41
2022/06/26 20:27:16;;;;;;;5.80;5.30;;;;;;;22.60;46.36;98711.95;433265;1271;108482;-46
2022/06/26 20:37:20;;;;;;;6.60;5.00;;;;;;;22.58;46.45;98717.50;433240;1269;98000;-42
2022/06/26 20:47:24;;;;;;;5.70;5.20;;;;;;;22.63;46.54;98720.29;433256;1269;98059;-43
2022/06/26 20:57:27;;;;;;;10.60;5.10;;;;;;;22.84;46.38;98719.54;433172;1271;108626;-44
2022/06/26 21:07:31;;;;;;;5.70;5.20;;;;;;;22.81;46.51;98731.77;433066;1271;98000;-43
2022/06/26 21:17:35;;;;;;;6.70;4.80;;;;;;;22.85;46.55;98737.20;433356;1270;107849;-42
2022/06/26 21:27:40;;;;;;;7.40;5.20;;;;;;;22.92;46.58;98731.89;432988;1269;97942;-43
2022/06/26 21:37:46;;;;;;;10.90;6.50;;;;;;;22.87;46.78;98728.25;432915;1269;111275;-42
2022/06/26 21:47:49;;;;;;;11.10;7.70;;;;;;;22.70;46.88;98730.91;432836;1271;107609;-44
2022/06/26 21:57:54;;;;;;;10.90;8.90;;;;;;;22.65;47.07;98729.02;432560;1271;97908;-42
2022/06/26 22:08:00;;;;;;;14.30;9.60;;;;;;;22.52;47.33;98730.73;432713;1271;110244;-46
2022/06/26 22:18:03;;;;;;;13.90;9.70;;;;;;;22.05;47.86;98735.76;432863;1270;108770;-41
2022/06/26 22:28:07;;;;;;;14.30;9.80;;;;;;;21.54;48.71;98738.60;432899;1270;96618;-42
2022/06/26 22:38:11;;;;;;;19.10;11.60;;;;;;;21.15;49.57;98739.64;432893;1270;111389;-41
2022/06/26 22:48:14;;;;;;;15.60;11.10;;;;;;;20.79;50.19;98735.73;432797;1270;97902;-41
2022/06/26 22:58:18;;;;;;;13.40;9.20;;;;;;;20.52;51.05;98735.17;432907;1270;98041;-42
2022/06/26 23:08:23;;;;;;;13.90;8.40;;;;;;;20.35;51.55;98736.05;432972;1270;111767;-42
2022/06/26 23:18:27;;;;;;;12.80;9.00;;;;;;;20.15;52.13;98735.04;433044;1269;108817;-44
2022/06/26 23:28:30;;;;;;;11.60;8.40;;;;;;;19.98;52.58;98727.69;432963;1270;97969;-43
2022/06/26 23:38:35;;;;;;;15.50;8.60;;;;;;;20.00;52.75;98717.63;433071;1270;97913;-44
2022/06/26 23:48:39;;;;;;;11.30;7.70;;;;;;;20.01;52.79;98715.14;433029;1268;108722;-44
2022/06/26 23:58:42;;;;;;;12.20;6.80;;;;;;;20.05;52.89;98710.36;433032;1269;97910;-41
